Time;durP1;ratioP1;P1;durP2;ratioP2;P2;SDS_P1;SDS_P2;PMS_P1;PMS_P2;Temp;Humidity;BMP_temperature;BMP_pressure;BME280_temperature;BME280_humidity;BME280_pressure;Samples;Min_cycle;Max_cycle;Signal;HPM_P1;HPM_P2
2023/12/12 00:00:11;;;;;;;;;;;;;;;11.27;100.00;100081.28;7289961;19;20323;-69
2023/12/12 00:02:38;;;;;;;;;;;;;;;11.28;100.00;100088.16;7293257;19;19923;-67
2023/12/12 00:05:05;;;;;;;;;;;;;;;11.29;100.00;100079.28;7285163;19;20591;-67
2023/12/12 00:07:30;;;;;;;;;;;;;;;11.30;100.00;100068.59;7295209;19;19934;-67
2023/12/12 00:09:58;;;;;;;;;;;;;;;11.33;100.00;100064.75;7300123;19;19964;-66
2023/12/12 00:12:24;;;;;;;;;;;;;;;11.34;100.00;100066.41;7309299;19;19949;-69
2023/12/12 00:14:51;;;;;;;;;;;;;;;11.34;100.00;100067.22;7297996;19;20545;-67
2023/12/12 00:17:18;;;;;;;;;;;;;;;11.33;100.00;100060.31;7302345;19;19950;-68
2023/12/12 00:19:45;;;;;;;;;;;;;;;11.34;100.00;100050.59;7304140;19;19918;-68
2023/12/12 00:22:12;;;;;;;;;;;;;;;11.40;100.00;100050.72;7285865;19;20878;-68
2023/12/12 00:24:39;;;;;;;;;;;;;;;11.43;100.00;100047.72;7293971;19;19942;-68
2023/12/12 00:27:06;;;;;;;;;;;;;;;11.49;100.00;100056.72;7292572;19;19923;-67
2023/12/12 00:29:35;;;;;;;;;;;;;;;11.48;100.00;100042.75;7287576;19;20556;-67
2023/12/12 00:32:03;;;;;;;;;;;;;;;11.52;100.00;100041.41;7280191;19;19998;-67
2023/12/12 00:34:30;;;;;;;;;;;;;;;11.50;100.00;100035.50;7292866;19;19925;-67
2023/12/12 00:36:57;;;;;;;;;;;;;;;11.51;100.00;100031.88;7296061;19;21026;-67
2023/12/12 00:39:24;;;;;;;;;;;;;;;11.53;100.00;100021.94;7300547;19;19926;-67
2023/12/12 00:41:54;;;;;;;;;;;;;;;11.56;100.00;100023.41;7281420;19;19929;-67
2023/12/12 00:44:21;;;;;;;;;;;;;;;11.60;100.00;100019.41;7288976;19;20930;-66
2023/12/12 00:46:48;;;;;;;;;;;;;;;11.62;100.00;100012.16;7293437;19;19926;-68
2023/12/12 00:49:15;;;;;;;;;;;;;;;11.63;100.00;100010.34;7286762;19;21032;-67
2023/12/12 00:51:42;;;;;;;;;;;;;;;11.64;100.00;100004.06;7290825;19;19922;-66
2023/12/12 00:54:09;;;;;;;;;;;;;;;11.68;100.00;100000.91;7290487;19;19919;-68
2023/12/12 00:56:36;;;;;;;;;;;;;;;11.69;100.00;100006.97;7284577;19;20318;-67
2023/12/12 00:59:03;;;;;;;;;;;;;;;11.68;100.00;99992.19;7277255;19;20347;-68
2023/12/12 01:01:30;;;;;;;;;;;;;;;11.69;100.00;99992.00;7278037;19;20505;-67
2023/12/12 01:03:57;;;;;;;;;;;;;;;11.71;100.00;99986.53;7275408;19;22364;-67
2023/12/12 01:06:25;;;;;;;;;;;;;;;11.73;100.00;99979.31;7312163;19;19926;-66
2023/12/12 01:08:51;;;;;;;;;;;;;;;11.76;100.00;99985.03;7301496;19;20886;-67
2023/12/12 01:11:19;;;;;;;;;;;;;;;11.79;100.00;99978.56;7292229;19;19945;-66
2023/12/12 01:13:46;;;;;;;;;;;;;;;11.80;100.00;99972.31;7306545;19;20005;-67
2023/12/12 01:16:13;;;;;;;;;;;;;;;11.84;100.00;99970.94;7292251;19;19926;-68
2023/12/12 01:18:39;;;;;;;;;;;;;;;11.87;100.00;99971.41;7301865;19;19922;-65
2023/12/12 01:21:07;;;;;;;;;;;;;;;11.87;100.00;99965.31;7313417;19;19919;-67
2023/12/12 01:23:44;;;;;;;;;;;;;;;11.85;100.00;99962.84;7315645;19;21072;-67
2023/12/12 01:26:11;;;;;;;;;;;;;;;11.88;100.00;99962.50;7307854;19;20428;-66
2023/12/12 01:28:38;;;;;;;;;;;;;;;11.89;100.00;99960.66;7279288;19;19956;-66
2023/12/12 01:31:05;;;;;;;;;;;;;;;11.91;100.00;99956.03;7295841;19;20310;-65
2023/12/12 01:33:32;;;;;;;;;;;;;;;11.93;100.00;99946.97;7289520;19;19941;-66
2023/12/12 01:35:57;;;;;;;;;;;;;;;11.97;100.00;99944.75;7291706;19;19926;-66
2023/12/12 01:38:25;;;;;;;;;;;;;;;11.97;100.00;99950.03;7279709;19;19990;-68
2023/12/12 01:40:53;;;;;;;;;;;;;;;11.96;100.00;99940.50;7287680;19;20590;-67
2023/12/12 01:43:24;;;;;;;;;;;;;;;11.91;100.00;99942.84;7285665;19;19914;-67
2023/12/12 01:45:51;;;;;;;;;;;;;;;11.91;100.00;99929.69;7277467;19;21083;-67
2023/12/12 01:48:18;;;;;;;;;;;;;;;11.88;100.00;99925.59;7292136;19;19918;-68
2023/12/12 01:50:46;;;;;;;;;;;;;;;11.87;100.00;99920.50;7286125;19;21465;-67
2023/12/12 01:53:13;;;;;;;;;;;;;;;11.90;100.00;99917.50;7301925;19;19923;-66
2023/12/12 01:58:08;;;;;;;;;;;;;;;11.94;100.00;99919.56;7285880;19;20426;-68
2023/12/12 02:00:36;;;;;;;;;;;;;;;11.94;100.00;99916.94;7293434;19;19919;-68
2023/12/12 02:03:03;;;;;;;;;;;;;;;11.97;100.00;99911.31;7294269;19;19914;-67
2023/12/12 02:05:31;;;;;;;;;;;;;;;12.00;100.00;99902.22;7271876;19;20458;-66
2023/12/12 02:07:58;;;;;;;;;;;;;;;12.02;100.00;99897.56;7297662;19;20282;-67
2023/12/12 02:10:26;;;;;;;;;;;;;;;12.06;100.00;99898.00;7297209;19;20513;-68
2023/12/12 02:12:53;;;;;;;;;;;;;;;12.06;100.00;99884.84;7296899;19;19952;-66
2023/12/12 02:15:20;;;;;;;;;;;;;;;12.05;100.00;99889.28;7290374;19;19915;-67
2023/12/12 02:17:47;;;;;;;;;;;;;;;12.06;100.00;99880.38;7293291;19;19925;-67
2023/12/12 02:20:14;;;;;;;;;;;;;;;12.07;100.00;99882.03;7281725;19;19922;-66
2023/12/12 02:22:42;;;;;;;;;;;;;;;12.07;100.00;99881.19;7283561;19;21783;-68
2023/12/12 02:25:09;;;;;;;;;;;;;;;12.06;100.00;99872.47;7301346;19;20281;-68
2023/12/12 02:27:37;;;;;;;;;;;;;;;12.06;100.00;99863.75;7294813;19;20578;-66
2023/12/12 02:30:06;;;;;;;;;;;;;;;12.04;100.00;99853.38;7298009;19;20264;-67
2023/12/12 02:32:32;;;;;;;;;;;;;;;12.08;100.00;99852.00;7298355;19;19986;-66
2023/12/12 02:35:00;;;;;;;;;;;;;;;12.08;100.00;99849.38;7285154;19;20450;-66
2023/12/12 02:37:27;;;;;;;;;;;;;;;12.10;100.00;99839.44;7294285;19;20145;-67
2023/12/12 02:39:54;;;;;;;;;;;;;;;12.08;100.00;99830.09;7294980;19;19930;-68
2023/12/12 02:42:21;;;;;;;;;;;;;;;12.06;100.00;99834.72;7296276;19;21191;-66
2023/12/12 02:44:48;;;;;;;;;;;;;;;12.03;100.00;99825.41;7293127;19;20210;-67
2023/12/12 02:47:15;;;;;;;;;;;;;;;12.02;100.00;99833.47;7293987;19;19987;-66
2023/12/12 02:49:42;;;;;;;;;;;;;;;12.01;100.00;99816.84;7285039;19;19914;-67
2023/12/12 02:52:09;;;;;;;;;;;;;;;12.04;100.00;99820.94;7285521;19;19915;-66
2023/12/12 02:54:36;;;;;;;;;;;;;;;12.03;100.00;99820.13;7302633;19;19915;-66
2023/12/12 02:57:03;;;;;;;;;;;;;;;12.01;100.00;99814.22;7282340;19;19922;-68
2023/12/12 02:59:30;;;;;;;;;;;;;;;12.02;100.00;99804.47;7292693;19;20148;-66
2023/12/12 03:01:57;;;;;;;;;;;;;;;12.03;100.00;99811.41;7295058;19;20010;-67
2023/12/12 03:04:24;;;;;;;;;;;;;;;12.05;100.00;99801.47;7298680;19;20399;-68
2023/12/12 03:06:51;;;;;;;;;;;;;;;12.06;100.00;99801.28;7286504;19;20593;-67
2023/12/12 03:09:18;;;;;;;;;;;;;;;12.08;100.00;99801.09;7303415;19;19926;-68
2023/12/12 03:11:45;;;;;;;;;;;;;;;12.12;100.00;99790.00;7302574;19;19926;-66
2023/12/12 03:14:12;;;;;;;;;;;;;;;12.12;100.00;99784.72;7311303;19;20450;-66
2023/12/12 03:16:39;;;;;;;;;;;;;;;12.13;100.00;99777.63;7289719;19;19918;-66
2023/12/12 03:19:06;;;;;;;;;;;;;;;12.13;100.00;99764.44;7304870;19;19966;-66
2023/12/12 03:21:33;;;;;;;;;;;;;;;12.14;100.00;99758.16;7274026;19;19968;-67
2023/12/12 03:24:00;;;;;;;;;;;;;;;12.19;100.00;99759.19;7294468;19;19922;-68
2023/12/12 03:26:27;;;;;;;;;;;;;;;12.22;100.00;99758.84;7285117;19;20112;-67
2023/12/12 03:28:54;;;;;;;;;;;;;;;12.25;100.00;99742.63;7292241;19;19986;-67
2023/12/12 03:31:21;;;;;;;;;;;;;;;12.27;100.00;99745.91;7297126;19;19923;-67
2023/12/12 03:33:48;;;;;;;;;;;;;;;12.32;100.00;99735.59;7278992;19;20317;-67
2023/12/12 03:36:14;;;;;;;;;;;;;;;12.33;100.00;99731.94;7280613;19;20342;-67
2023/12/12 03:38:42;;;;;;;;;;;;;;;12.35;100.00;99729.91;7278507;19;20547;-67
2023/12/12 03:41:09;;;;;;;;;;;;;;;12.39;100.00;99739.06;7297825;19;20359;-67
2023/12/12 03:43:35;;;;;;;;;;;;;;;12.40;100.00;99721.44;7277536;19;19926;-66
2023/12/12 03:46:02;;;;;;;;;;;;;;;12.41;100.00;99721.25;7287319;19;19927;-68
2023/12/12 03:48:29;;;;;;;;;;;;;;;12.43;100.00;99707.88;7280522;19;19929;-66
2023/12/12 03:50:57;;;;;;;;;;;;;;;12.41;100.00;99696.69;7281069;19;19923;-65
2023/12/12 03:53:24;;;;;;;;;;;;;;;12.47;100.00;99710.94;7286585;19;19914;-68
2023/12/12 03:55:51;;;;;;;;;;;;;;;12.47;100.00;99703.84;7284560;19;19926;-66
2023/12/12 03:58:18;;;;;;;;;;;;;;;12.43;100.00;99695.50;7298992;19;19942;-66
2023/12/12 04:00:45;;;;;;;;;;;;;;;12.43;100.00;99687.59;7302389;19;20786;-66
2023/12/12 04:03:12;;;;;;;;;;;;;;;12.43;100.00;99690.22;7290624;19;20342;-67
2023/12/12 04:05:39;;;;;;;;;;;;;;;12.44;100.00;99670.72;7294430;19;19918;-66
2023/12/12 04:08:07;;;;;;;;;;;;;;;12.42;100.00;99667.47;7277976;19;19931;-66
2023/12/12 04:10:34;;;;;;;;;;;;;;;12.41;100.00;99665.03;7297757;19;19919;-66
2023/12/12 04:13:01;;;;;;;;;;;;;;;12.37;100.00;99661.97;7319358;19;19988;-66
2023/12/12 04:15:27;;;;;;;;;;;;;;;12.37;100.00;99664.59;7314989;19;19951;-68
2023/12/12 04:17:54;;;;;;;;;;;;;;;12.34;100.00;99664.19;7307446;19;20336;-66
2023/12/12 04:20:21;;;;;;;;;;;;;;;12.35;100.00;99660.53;7310790;19;20156;-66
2023/12/12 04:22:48;;;;;;;;;;;;;;;12.36;100.00;99662.97;7288460;19;20003;-66
2023/12/12 04:25:15;;;;;;;;;;;;;;;12.39;100.00;99659.94;7291500;19;19926;-66
2023/12/12 04:27:42;;;;;;;;;;;;;;;12.39;100.00;99662.56;7285019;19;19926;-67
2023/12/12 04:30:10;;;;;;;;;;;;;;;12.40;100.00;99658.94;7284710;19;20458;-67
2023/12/12 04:32:37;;;;;;;;;;;;;;;12.40;100.00;99648.38;7293290;19;19926;-67
2023/12/12 04:35:05;;;;;;;;;;;;;;;12.41;100.00;99642.09;7282648;19;19915;-66
2023/12/12 04:37:32;;;;;;;;;;;;;;;12.43;100.00;99639.28;7291289;19;20906;-67
2023/12/12 04:40:00;;;;;;;;;;;;;;;12.48;100.00;99636.88;7281099;19;19922;-65
2023/12/12 04:42:27;;;;;;;;;;;;;;;12.50;100.00;99634.03;7298159;19;19925;-67
2023/12/12 04:44:54;;;;;;;;;;;;;;;12.53;100.00;99638.94;7283009;19;20304;-67
2023/12/12 04:47:20;;;;;;;;;;;;;;;12.50;100.00;99640.13;7292946;19;20912;-69
2023/12/12 04:49:47;;;;;;;;;;;;;;;12.52;100.00;99640.75;7301922;19;19918;-70
2023/12/12 04:52:15;;;;;;;;;;;;;;;12.52;100.00;99637.28;7293925;19;20720;-66
2023/12/12 04:54:42;;;;;;;;;;;;;;;12.51;100.00;99636.47;7309087;19;19922;-66
2023/12/12 04:57:09;;;;;;;;;;;;;;;12.52;100.00;99632.84;7281476;19;19922;-66
2023/12/12 04:59:36;;;;;;;;;;;;;;;12.56;100.00;99635.88;7298309;19;20767;-68
2023/12/12 05:02:04;;;;;;;;;;;;;;;12.57;100.00;99640.97;7287423;19;19971;-66
2023/12/12 05:04:31;;;;;;;;;;;;;;;12.57;100.00;99642.81;7279230;19;19918;-67
2023/12/12 05:06:58;;;;;;;;;;;;;;;12.55;100.00;99653.53;7287089;19;20431;-66
2023/12/12 05:09:25;;;;;;;;;;;;;;;12.58;100.00;99650.53;7279901;19;19922;-68
2023/12/12 05:11:52;;;;;;;;;;;;;;;12.63;100.00;99665.78;7293333;19;20238;-68
2023/12/12 05:14:19;;;;;;;;;;;;;;;12.65;100.00;99680.38;7298066;19;20035;-67
2023/12/12 05:16:45;;;;;;;;;;;;;;;12.69;100.00;99678.19;7293208;19;20578;-65
2023/12/12 05:19:26;;;;;;;;;;;;;;;12.68;100.00;99668.66;7295865;19;21805;-67
2023/12/12 05:21:53;;;;;;;;;;;;;;;12.59;100.00;99654.00;7283339;19;20735;-65
2023/12/12 05:24:19;;;;;;;;;;;;;;;12.52;100.00;99647.84;7288037;19;19922;-66
2023/12/12 05:26:45;;;;;;;;;;;;;;;12.47;100.00;99637.88;7288529;19;19922;-66
2023/12/12 05:29:13;;;;;;;;;;;;;;;12.43;100.00;99634.81;7299383;19;19917;-66
2023/12/12 05:31:39;;;;;;;;;;;;;;;12.36;100.00;99633.97;7292212;19;19934;-68
2023/12/12 05:34:06;;;;;;;;;;;;;;;12.34;100.00;99641.22;7290494;19;20170;-66
2023/12/12 05:36:33;;;;;;;;;;;;;;;12.30;100.00;99640.00;7286940;19;19915;-66
2023/12/12 05:39:00;;;;;;;;;;;;;;;12.29;100.00;99632.31;7291073;19;20137;-67
2023/12/12 05:41:27;;;;;;;;;;;;;;;12.25;100.00;99641.59;7276381;19;19949;-66
2023/12/12 05:43:54;;;;;;;;;;;;;;;12.26;100.00;99636.13;7307384;19;22024;-65
2023/12/12 05:46:21;;;;;;;;;;;;;;;12.21;100.00;99641.16;7298514;19;20027;-65
2023/12/12 05:48:48;;;;;;;;;;;;;;;12.21;100.00;99638.53;7288180;19;19926;-65
2023/12/12 05:51:15;;;;;;;;;;;;;;;12.20;100.00;99639.53;7279663;19;20663;-65
2023/12/12 05:53:41;;;;;;;;;;;;;;;12.17;100.00;99634.66;7281129;19;19936;-66
2023/12/12 05:56:09;;;;;;;;;;;;;;;12.13;100.00;99629.97;7293167;19;19945;-67
2023/12/12 05:58:38;;;;;;;;;;;;;;;12.06;100.00;99626.44;7299401;19;19918;-68
2023/12/12 06:01:05;;;;;;;;;;;;;;;12.05;100.00;99622.19;7307522;19;19930;-68
2023/12/12 06:03:31;;;;;;;;;;;;;;;12.04;100.00;99623.22;7310259;19;20402;-67
2023/12/12 06:06:02;;;;;;;;;;;;;;;12.00;100.00;99606.94;7297267;19;20461;-67
2023/12/12 06:08:29;;;;;;;;;;;;;;;11.96;100.00;99595.97;7283369;19;19958;-67
2023/12/12 06:10:57;;;;;;;;;;;;;;;11.96;100.00;99593.34;7286119;19;20812;-66
2023/12/12 06:13:23;;;;;;;;;;;;;;;11.92;100.00;99601.81;7298594;19;19926;-66
2023/12/12 06:15:50;;;;;;;;;;;;;;;11.92;100.00;99607.09;7288456;19;19933;-66
2023/12/12 06:18:17;;;;;;;;;;;;;;;11.92;100.00;99597.38;7301398;19;20272;-67
2023/12/12 06:20:44;;;;;;;;;;;;;;;11.92;100.00;99596.56;7304220;19;19924;-68
2023/12/12 06:23:12;;;;;;;;;;;;;;;11.89;100.00;99605.63;7298441;19;19932;-67
2023/12/12 06:25:39;;;;;;;;;;;;;;;11.89;100.00;99596.91;7295290;19;20264;-67
2023/12/12 06:28:06;;;;;;;;;;;;;;;11.90;100.00;99588.00;7310774;19;20838;-67
2023/12/12 06:30:33;;;;;;;;;;;;;;;11.94;100.00;99589.25;7301392;19;20311;-66
2023/12/12 06:33:00;;;;;;;;;;;;;;;11.97;100.00;99579.16;7305877;19;19927;-68
2023/12/12 06:35:27;;;;;;;;;;;;;;;12.01;100.00;99574.31;7307824;19;20628;-65
2023/12/12 06:37:55;;;;;;;;;;;;;;;12.00;100.00;99564.75;7292860;19;19978;-67
2023/12/12 06:40:22;;;;;;;;;;;;;;;11.99;100.00;99563.13;7301057;19;19927;-66
2023/12/12 06:42:48;;;;;;;;;;;;;;;11.97;100.00;99573.88;7305743;19;20002;-68
2023/12/12 06:45:15;;;;;;;;;;;;;;;11.96;100.00;99566.16;7294199;19;19931;-66
2023/12/12 06:47:42;;;;;;;;;;;;;;;11.95;100.00;99564.53;7293230;19;22690;-67
2023/12/12 06:50:10;;;;;;;;;;;;;;;11.94;100.00;99563.69;7286794;19;20764;-67
2023/12/12 06:52:37;;;;;;;;;;;;;;;11.96;100.00;99563.53;7291494;19;19944;-67
2023/12/12 06:55:05;;;;;;;;;;;;;;;11.94;100.00;99554.97;7295665;19;20604;-66
2023/12/12 06:57:32;;;;;;;;;;;;;;;11.92;100.00;99551.75;7302904;19;19914;-66
2023/12/12 06:59:59;;;;;;;;;;;;;;;11.90;100.00;99548.47;7303857;19;19986;-67
2023/12/12 07:02:26;;;;;;;;;;;;;;;11.90;100.00;99554.56;7294573;19;19975;-67
2023/12/12 07:04:53;;;;;;;;;;;;;;;11.90;100.00;99548.47;7284679;19;20203;-67
2023/12/12 07:07:20;;;;;;;;;;;;;;;11.87;100.00;99551.50;7283629;19;20107;-67
2023/12/12 07:09:48;;;;;;;;;;;;;;;11.85;100.00;99558.78;7285753;19;19923;-68
2023/12/12 07:12:26;;;;;;;;;;;;;;;11.84;100.00;99557.97;7278162;19;19998;-67
2023/12/12 07:15:07;;;;;;;;;;;;;;;11.86;100.00;99555.97;7298241;19;19926;-68
2023/12/12 07:17:34;;;;;;;;;;;;;;;11.86;100.00;99549.88;7320415;19;19934;-67
2023/12/12 07:20:02;;;;;;;;;;;;;;;11.87;100.00;99541.78;7282164;19;19942;-66
2023/12/12 07:22:28;;;;;;;;;;;;;;;11.90;100.00;99538.75;7281872;19;20363;-68
2023/12/12 07:24:56;;;;;;;;;;;;;;;11.90;100.00;99537.94;7286706;19;20428;-66
2023/12/12 07:27:22;;;;;;;;;;;;;;;11.91;100.00;99540.38;7299375;19;19922;-67
2023/12/12 07:29:49;;;;;;;;;;;;;;;11.94;100.00;99541.81;7294668;19;20886;-67
2023/12/12 07:32:16;;;;;;;;;;;;;;;11.93;100.00;99529.66;7314509;19;19919;-68
2023/12/12 07:34:43;;;;;;;;;;;;;;;11.91;100.00;99539.56;7303802;19;20612;-66
2023/12/12 07:37:10;;;;;;;;;;;;;;;11.89;100.00;99544.19;7285743;19;19961;-66
2023/12/12 07:39:37;;;;;;;;;;;;;;;11.88;100.00;99543.41;7277168;19;19922;-68
2023/12/12 07:42:04;;;;;;;;;;;;;;;11.86;100.00;99542.78;7302608;19;19923;-66
2023/12/12 07:44:32;;;;;;;;;;;;;;;11.86;100.00;99539.31;7298679;19;19982;-66
2023/12/12 07:47:01;;;;;;;;;;;;;;;11.82;100.00;99535.44;7293041;19;20466;-68
2023/12/12 07:49:28;;;;;;;;;;;;;;;11.80;100.00;99538.28;7285105;19;20225;-66
2023/12/12 07:51:56;;;;;;;;;;;;;;;11.82;100.00;99536.28;7277042;19;19922;-66
2023/12/12 07:54:23;;;;;;;;;;;;;;;11.84;100.00;99528.16;7305349;19;19919;-67
2023/12/12 07:56:49;;;;;;;;;;;;;;;11.86;100.00;99532.25;7312163;19;20129;-67
2023/12/12 07:59:17;;;;;;;;;;;;;;;11.87;100.00;99533.88;7297580;19;19945;-67
2023/12/12 08:01:45;;;;;;;;;;;;;;;11.89;100.00;99528.38;7305058;19;20174;-67
2023/12/12 08:04:12;;;;;;;;;;;;;;;11.90;100.00;99520.28;7286950;19;20484;-65
2023/12/12 08:06:40;;;;;;;;;;;;;;;11.93;100.00;99522.56;7287257;19;20205;-67
2023/12/12 08:09:08;;;;;;;;;;;;;;;11.92;100.00;99518.28;7283497;19;20490;-65
2023/12/12 08:11:35;;;;;;;;;;;;;;;11.94;100.00;99516.25;7294696;19;19956;-67
2023/12/12 08:14:02;;;;;;;;;;;;;;;11.96;100.00;99518.72;7277767;19;19921;-69
2023/12/12 08:16:31;;;;;;;;;;;;;;;11.98;100.00;99522.78;7306051;19;19994;-67
2023/12/12 08:18:58;;;;;;;;;;;;;;;11.99;100.00;99519.13;7289889;19;19918;-68
2023/12/12 08:21:25;;;;;;;;;;;;;;;12.00;100.00;99525.22;7284150;19;20086;-66
2023/12/12 08:23:54;;;;;;;;;;;;;;;12.03;100.00;99521.41;7297320;19;20179;-68
2023/12/12 08:26:22;;;;;;;;;;;;;;;12.00;100.00;99523.41;7294250;19;19982;-67
2023/12/12 08:28:50;;;;;;;;;;;;;;;12.02;100.00;99520.56;7288437;19;19960;-67
2023/12/12 08:31:17;;;;;;;;;;;;;;;12.02;100.00;99520.56;7280167;19;19915;-69
2023/12/12 08:33:45;;;;;;;;;;;;;;;12.03;100.00;99518.75;7284894;19;20565;-66
2023/12/12 08:36:12;;;;;;;;;;;;;;;12.03;100.00;99513.47;7281822;19;19949;-65
2023/12/12 08:38:40;;;;;;;;;;;;;;;12.04;100.00;99517.75;7277724;19;19919;-68
2023/12/12 08:41:07;;;;;;;;;;;;;;;12.05;100.00;99508.81;7290913;19;21390;-68
2023/12/12 08:43:39;;;;;;;;;;;;;;;12.05;100.00;99514.09;7284134;19;19931;-67
2023/12/12 08:46:07;;;;;;;;;;;;;;;12.11;100.00;99511.50;7283144;19;20520;-67
2023/12/12 08:48:35;;;;;;;;;;;;;;;12.14;100.00;99512.94;7292063;19;19923;-68
2023/12/12 08:51:03;;;;;;;;;;;;;;;12.16;100.00;99506.44;7292298;19;19919;-68
2023/12/12 08:53:30;;;;;;;;;;;;;;;12.20;100.00;99507.66;7302097;19;19914;-67
2023/12/12 08:55:58;;;;;;;;;;;;;;;12.24;100.00;99503.63;7302602;19;19923;-66
2023/12/12 08:58:26;;;;;;;;;;;;;;;12.27;100.00;99494.53;7285078;19;21144;-67
2023/12/12 09:00:54;;;;;;;;;;;;;;;12.29;100.00;99490.66;7290178;19;20289;-68
2023/12/12 09:03:21;;;;;;;;;;;;;;;12.32;100.00;99492.94;7303010;19;19919;-70
2023/12/12 09:05:49;;;;;;;;;;;;;;;12.40;100.00;99495.38;7286351;19;19914;-68
2023/12/12 09:08:17;;;;;;;;;;;;;;;12.58;100.00;99494.03;7307772;19;19926;-67
2023/12/12 09:10:45;;;;;;;;;;;;;;;12.97;100.00;99491.47;7310937;19;20880;-68
2023/12/12 09:13:12;;;;;;;;;;;;;;;13.21;100.00;99490.91;7286064;19;20592;-68
2023/12/12 09:15:41;;;;;;;;;;;;;;;13.39;100.00;99489.47;7292129;19;22647;-68
2023/12/12 09:18:09;;;;;;;;;;;;;;;13.54;100.00;99484.78;7294247;19;20735;-67
2023/12/12 09:20:46;;;;;;;;;;;;;;;13.65;100.00;99490.28;7275930;19;20639;-67
2023/12/12 09:23:16;;;;;;;;;;;;;;;13.68;100.00;99491.69;7294572;19;19915;-69
2023/12/12 09:25:43;;;;;;;;;;;;;;;13.69;100.00;99491.50;7289808;19;19914;-69
2023/12/12 09:28:11;;;;;;;;;;;;;;;13.73;100.00;99480.50;7281044;19;20735;-68
2023/12/12 09:30:40;;;;;;;;;;;;;;;13.61;100.00;99480.31;7280558;19;19919;-68
2023/12/12 09:33:08;;;;;;;;;;;;;;;13.51;100.00;99485.22;7290775;19;20268;-67
2023/12/12 09:35:36;;;;;;;;;;;;;;;13.42;100.00;99478.50;7282674;19;20431;-68
2023/12/12 09:38:06;;;;;;;;;;;;;;;13.39;100.00;99479.72;7275433;19;19927;-70
2023/12/12 09:40:35;;;;;;;;;;;;;;;13.35;100.00;99483.00;7289010;19;20366;-69
2023/12/12 09:43:04;;;;;;;;;;;;;;;13.33;100.00;99466.50;7283521;19;19926;-68
2023/12/12 09:45:32;;;;;;;;;;;;;;;13.34;100.00;99470.78;7284841;19;20026;-67
2023/12/12 09:48:00;;;;;;;;;;;;;;;13.33;100.00;99469.16;7287247;19;19933;-68
2023/12/12 09:50:31;;;;;;;;;;;;;;;13.31;100.00;99466.72;7305824;19;19960;-69
2023/12/12 09:52:59;;;;;;;;;;;;;;;13.25;100.00;99464.91;7291984;19;19919;-69
2023/12/12 09:55:28;;;;;;;;;;;;;;;13.22;100.00;99454.72;7297892;19;19923;-68
2023/12/12 09:57:55;;;;;;;;;;;;;;;13.19;100.00;99461.25;7285665;19;19956;-68
2023/12/12 10:00:22;;;;;;;;;;;;;;;13.20;100.00;99449.69;7296446;19;19929;-68
2023/12/12 10:02:51;;;;;;;;;;;;;;;13.19;100.00;99444.59;7284465;19;19933;-69
2023/12/12 10:05:19;;;;;;;;;;;;;;;13.16;100.00;99437.88;7284787;19;22544;-69
2023/12/12 10:07:46;;;;;;;;;;;;;;;13.15;100.00;99443.38;7273605;19;21163;-68
2023/12/12 10:10:26;;;;;;;;;;;;;;;13.12;100.00;99438.47;7294389;19;19963;-69
2023/12/12 10:12:53;;;;;;;;;;;;;;;13.09;100.00;99436.22;7294047;19;20311;-67
2023/12/12 10:15:25;;;;;;;;;;;;;;;13.09;100.00;99452.88;7279232;19;19919;-69
2023/12/12 10:17:54;;;;;;;;;;;;;;;13.06;100.00;99426.06;7282733;19;19919;-68
2023/12/12 10:20:26;;;;;;;;;;;;;;;13.06;100.00;99429.50;7282085;19;19915;-67
2023/12/12 10:22:54;;;;;;;;;;;;;;;13.10;100.00;99427.28;7303296;19;19970;-68
2023/12/12 10:25:22;;;;;;;;;;;;;;;13.09;100.00;99428.31;7306794;19;19919;-68
2023/12/12 10:27:52;;;;;;;;;;;;;;;13.10;100.00;99428.13;7301815;19;19922;-70
2023/12/12 10:30:21;;;;;;;;;;;;;;;13.07;100.00;99409.19;7309053;19;20319;-67
2023/12/12 10:32:51;;;;;;;;;;;;;;;13.06;100.00;99411.03;7303785;19;20272;-68
2023/12/12 10:35:19;;;;;;;;;;;;;;;13.06;100.00;99404.94;7302336;19;19930;-67
2023/12/12 10:37:55;;;;;;;;;;;;;;;13.02;100.00;99412.47;7290705;19;20345;-68
2023/12/12 10:40:22;;;;;;;;;;;;;;;13.02;100.00;99411.63;7286374;19;19979;-67
2023/12/12 10:42:51;;;;;;;;;;;;;;;13.08;100.00;99418.75;7296975;19;19942;-67
2023/12/12 10:45:20;;;;;;;;;;;;;;;13.15;100.00;99419.59;7274925;19;20487;-68
2023/12/12 10:47:47;;;;;;;;;;;;;;;13.16;100.00;99406.19;7295288;19;19938;-68
2023/12/12 10:50:16;;;;;;;;;;;;;;;13.20;100.00;99407.41;7290808;19;19922;-68
2023/12/12 10:52:45;;;;;;;;;;;;;;;13.24;100.00;99392.78;7277861;19;19934;-68
2023/12/12 10:55:13;;;;;;;;;;;;;;;13.25;100.00;99386.47;7305322;19;19998;-68
2023/12/12 10:57:42;;;;;;;;;;;;;;;13.31;100.00;99384.81;7302681;19;20479;-67
2023/12/12 11:00:11;;;;;;;;;;;;;;;13.36;100.00;99381.59;7291382;19;19938;-68
2023/12/12 11:02:44;;;;;;;;;;;;;;;13.42;100.00;99388.66;7302810;19;21650;-69
2023/12/12 11:05:12;;;;;;;;;;;;;;;13.44;100.00;99376.88;7299906;19;20320;-68
2023/12/12 11:07:41;;;;;;;;;;;;;;;13.48;100.00;99369.34;7300354;19;19941;-68
2023/12/12 11:10:09;;;;;;;;;;;;;;;13.48;100.00;99367.50;7309599;19;19978;-67
2023/12/12 11:12:39;;;;;;;;;;;;;;;13.49;100.00;99368.31;7304969;19;20459;-68
2023/12/12 11:15:07;;;;;;;;;;;;;;;13.48;100.00;99359.59;7310716;19;20614;-68
2023/12/12 11:17:34;;;;;;;;;;;;;;;13.46;100.00;99356.31;7292035;19;19922;-68
2023/12/12 11:20:10;;;;;;;;;;;;;;;13.48;100.00;99354.31;7299145;19;19926;-68
2023/12/12 11:22:39;;;;;;;;;;;;;;;13.49;100.00;99353.28;7297360;19;19918;-69
2023/12/12 11:25:08;;;;;;;;;;;;;;;13.39;100.00;99337.06;7315728;19;19919;-68
2023/12/12 11:27:38;;;;;;;;;;;;;;;13.33;100.00;99311.47;7297882;19;20619;-68
2023/12/12 11:30:05;;;;;;;;;;;;;;;13.29;100.00;99318.19;7309174;19;20259;-68
2023/12/12 11:32:33;;;;;;;;;;;;;;;13.23;100.00;99319.00;7306134;19;19930;-68
2023/12/12 11:35:06;;;;;;;;;;;;;;;13.14;100.00;99321.06;7315326;19;20359;-69
2023/12/12 11:37:43;;;;;;;;;;;;;;;13.11;100.00;99312.69;7284197;19;19921;-69
2023/12/12 11:40:10;;;;;;;;;;;;;;;13.09;100.00;99307.66;7293686;19;19926;-68
2023/12/12 11:42:40;;;;;;;;;;;;;;;13.07;100.00;99298.28;7293310;19;20593;-68
2023/12/12 11:45:08;;;;;;;;;;;;;;;13.02;100.00;99298.91;7297205;19;19919;-68
2023/12/12 11:47:35;;;;;;;;;;;;;;;12.96;100.00;99296.28;7298976;19;19927;-69
2023/12/12 11:50:18;;;;;;;;;;;;;;;12.98;100.00;99292.44;7298827;19;19911;-69
2023/12/12 11:52:46;;;;;;;;;;;;;;;12.98;100.00;99291.63;7288635;19;19915;-69
2023/12/12 11:55:18;;;;;;;;;;;;;;;12.93;100.00;99279.03;7294883;19;19931;-68
2023/12/12 11:57:49;;;;;;;;;;;;;;;12.92;100.00;99273.94;7294901;19;19918;-68
2023/12/12 12:00:17;;;;;;;;;;;;;;;12.87;100.00;99277.22;7286295;19;20198;-68
2023/12/12 12:02:44;;;;;;;;;;;;;;;12.91;100.00;99272.31;7296596;19;19915;-67
2023/12/12 12:05:14;;;;;;;;;;;;;;;12.90;100.00;99278.66;7302650;19;19930;-69
2023/12/12 12:07:46;;;;;;;;;;;;;;;12.86;100.00;99284.31;7297078;19;20521;-68
2023/12/12 12:10:13;;;;;;;;;;;;;;;12.85;100.00;99272.13;7296427;19;19915;-68
2023/12/12 12:12:40;;;;;;;;;;;;;;;12.86;100.00;99270.31;7297050;19;19970;-68
2023/12/12 12:15:09;;;;;;;;;;;;;;;12.81;100.00;99270.94;7289306;19;19922;-68
2023/12/12 12:17:37;;;;;;;;;;;;;;;12.81;100.00;99278.03;7299130;19;19978;-68
2023/12/12 12:20:04;;;;;;;;;;;;;;;12.76;99.33;99272.56;7303814;19;21165;-67
2023/12/12 12:22:36;;;;;;;;;;;;;;;12.77;99.04;99267.09;7293143;19;19923;-68
2023/12/12 12:25:04;;;;;;;;;;;;;;;12.76;99.15;99267.28;7305532;19;20360;-69
2023/12/12 12:27:32;;;;;;;;;;;;;;;12.77;100.00;99251.25;7297925;19;20240;-68
2023/12/12 12:30:01;;;;;;;;;;;;;;;12.75;99.96;99248.00;7291309;19;20226;-67
2023/12/12 12:32:28;;;;;;;;;;;;;;;12.75;99.66;99266.47;7282097;19;20037;-68
2023/12/12 12:35:04;;;;;;;;;;;;;;;12.74;99.65;99256.13;7293541;19;20592;-68
2023/12/12 12:37:32;;;;;;;;;;;;;;;12.81;100.00;99251.63;7282464;19;20502;-68
2023/12/12 12:40:04;;;;;;;;;;;;;;;12.77;100.00;99253.88;7291083;19;19965;-68